Time;durP1;ratioP1;P1;durP2;ratioP2;P2;SDS_P1;SDS_P2;PMS_P1;PMS_P2;Temp;Humidity;BMP_temperature;BMP_pressure;BME280_temperature;BME280_humidity;BME280_pressure;Samples;Min_cycle;Max_cycle;Signal;HPM_P1;HPM_P2
2021/09/03 00:02:30;;;;;;;10.00;4.25;;;;;;;;;;6164994;28;20097;-70
2021/09/03 00:05:32;;;;;;;5.25;3.78;;;;;;;;;;6169679;28;20141;-75
2021/09/03 00:08:33;;;;;;;6.47;4.40;;;;;;;;;;6179737;28;20141;-69
2021/09/03 00:11:35;;;;;;;7.28;3.83;;;;;;;;;;6173213;28;20049;-67
2021/09/03 00:14:36;;;;;;;10.93;3.92;;;;;;;;;;6178811;28;20114;-68
2021/09/03 00:17:40;;;;;;;7.07;4.05;;;;;;;;;;6167714;28;20050;-70
2021/09/03 00:20:42;;;;;;;5.75;3.90;;;;;;;;;;6172690;28;20046;-71
2021/09/03 00:23:43;;;;;;;7.10;3.85;;;;;;;;;;6176001;28;20073;-70
2021/09/03 00:26:45;;;;;;;8.40;4.05;;;;;;;;;;6171212;28;20178;-68
2021/09/03 00:29:46;;;;;;;12.88;3.83;;;;;;;;;;6178588;28;20202;-70
2021/09/03 00:32:49;;;;;;;6.68;3.80;;;;;;;;;;6171011;28;20039;-68
2021/09/03 00:35:51;;;;;;;7.35;3.97;;;;;;;;;;6168182;28;20041;-68
2021/09/03 00:38:52;;;;;;;5.00;3.47;;;;;;;;;;6178207;28;20038;-68
2021/09/03 00:41:54;;;;;;;6.78;3.90;;;;;;;;;;6175174;28;20049;-71
2021/09/03 00:44:55;;;;;;;7.97;3.60;;;;;;;;;;6186781;28;20081;-71
2021/09/03 00:47:58;;;;;;;9.73;4.30;;;;;;;;;;6162944;28;20138;-68
2021/09/03 00:51:00;;;;;;;5.72;3.58;;;;;;;;;;6175180;28;20088;-68
2021/09/03 00:54:02;;;;;;;5.28;3.45;;;;;;;;;;6188012;28;20507;-69
2021/09/03 00:57:04;;;;;;;6.88;3.90;;;;;;;;;;6175861;28;20566;-75
2021/09/03 01:00:08;;;;;;;5.28;3.88;;;;;;;;;;6185484;28;20054;-74
2021/09/03 01:03:10;;;;;;;4.57;3.40;;;;;;;;;;6170701;28;20108;-68
2021/09/03 01:06:13;;;;;;;6.15;3.80;;;;;;;;;;6171935;28;20046;-68
2021/09/03 01:09:14;;;;;;;6.65;4.10;;;;;;;;;;6183774;28;20052;-67
2021/09/03 01:12:17;;;;;;;6.63;4.20;;;;;;;;;;6177464;28;20452;-68
2021/09/03 01:15:19;;;;;;;5.68;4.03;;;;;;;;;;6178859;28;20043;-75
2021/09/03 01:18:22;;;;;;;8.02;3.70;;;;;;;;;;6178183;28;20462;-75
2021/09/03 01:21:25;;;;;;;7.45;3.70;;;;;;;;;;6174232;28;20058;-70
2021/09/03 01:24:28;;;;;;;8.35;4.53;;;;;;;;;;6188354;28;20235;-71
2021/09/03 01:27:30;;;;;;;6.22;4.13;;;;;;;;;;6176152;28;20096;-70
2021/09/03 01:30:31;;;;;;;8.00;3.78;;;;;;;;;;6179943;28;22147;-77
2021/09/03 01:33:33;;;;;;;7.55;4.32;;;;;;;;;;6189704;28;20626;-69
2021/09/03 01:36:35;;;;;;;8.93;3.92;;;;;;;;;;6186040;28;20402;-68
2021/09/03 01:39:38;;;;;;;8.38;4.03;;;;;;;;;;6190883;28;20101;-67
2021/09/03 01:42:40;;;;;;;;;;;;;;;;;;6184512;28;20054;-76
2021/09/03 01:45:41;;;;;;;8.20;3.97;;;;;;;;;;6179511;28;20011;-67
2021/09/03 01:48:43;;;;;;;8.23;4.32;;;;;;;;;;6185748;28;20050;-68
2021/09/03 01:51:44;;;;;;;5.97;3.83;;;;;;;;;;6183734;28;20127;-68
2021/09/03 01:54:47;;;;;;;7.25;3.60;;;;;;;;;;6191522;28;20054;-68
2021/09/03 01:57:50;;;;;;;5.70;4.05;;;;;;;;;;6182603;28;20502;-67
2021/09/03 02:00:51;;;;;;;7.20;4.00;;;;;;;;;;6190424;28;20042;-68
2021/09/03 02:03:53;;;;;;;6.18;4.07;;;;;;;;;;6189517;28;20108;-68
2021/09/03 02:06:54;;;;;;;6.32;4.20;;;;;;;;;;6177690;28;20387;-68
2021/09/03 02:09:57;;;;;;;6.53;3.75;;;;;;;;;;6184748;28;20051;-72
2021/09/03 02:12:59;;;;;;;5.55;3.90;;;;;;;;;;6181429;28;20141;-71
2021/09/03 02:16:00;;;;;;;7.13;3.80;;;;;;;;;;6173792;28;20051;-68
2021/09/03 02:19:02;;;;;;;6.75;3.97;;;;;;;;;;6178898;28;20047;-68
2021/09/03 02:22:04;;;;;;;7.10;3.72;;;;;;;;;;6181391;28;20046;-68
2021/09/03 02:25:08;;;;;;;8.60;3.92;;;;;;;;;;6180736;28;20051;-72
2021/09/03 02:28:09;;;;;;;5.30;3.67;;;;;;;;;;6179256;28;20046;-71
2021/09/03 02:31:11;;;;;;;7.80;3.95;;;;;;;;;;6172626;28;20048;-69
2021/09/03 02:34:12;;;;;;;4.85;3.55;;;;;;;;;;6179901;28;20133;-69
2021/09/03 02:37:14;;;;;;;5.90;3.50;;;;;;;;;;6180602;28;20054;-68
2021/09/03 02:40:17;;;;;;;5.95;3.78;;;;;;;;;;6184187;28;20192;-76
2021/09/03 02:43:18;;;;;;;5.28;4.00;;;;;;;;;;6189130;28;20058;-68
2021/09/03 02:46:20;;;;;;;6.95;3.97;;;;;;;;;;6172257;28;20527;-72
2021/09/03 02:49:22;;;;;;;7.50;3.80;;;;;;;;;;6181283;28;20417;-68
2021/09/03 02:52:23;;;;;;;6.40;3.70;;;;;;;;;;6163831;28;20054;-73
2021/09/03 02:55:27;;;;;;;4.90;3.75;;;;;;;;;;6180571;28;20188;-72
2021/09/03 02:58:29;;;;;;;5.35;3.67;;;;;;;;;;6182781;28;20223;-69
2021/09/03 03:01:30;;;;;;;7.00;3.80;;;;;;;;;;6175651;28;20042;-74
2021/09/03 03:04:32;;;;;;;6.72;4.15;;;;;;;;;;6179883;28;20081;-68
2021/09/03 03:07:34;;;;;;;6.65;3.78;;;;;;;;;;6179304;28;20088;-71
2021/09/03 03:10:36;;;;;;;5.97;3.60;;;;;;;;;;6176604;28;20125;-69
2021/09/03 03:13:45;;;;;;;6.93;3.50;;;;;;;;;;6185587;28;20125;-68
2021/09/03 03:16:47;;;;;;;5.57;3.97;;;;;;;;;;6168784;28;20098;-68
2021/09/03 03:19:48;;;;;;;8.65;3.70;;;;;;;;;;6184306;28;20133;-70
2021/09/03 03:22:50;;;;;;;5.40;3.40;;;;;;;;;;6171237;28;20137;-68
2021/09/03 03:25:54;;;;;;;5.93;3.10;;;;;;;;;;6181348;28;20044;-68
2021/09/03 03:28:56;;;;;;;6.43;3.78;;;;;;;;;;6181045;28;20066;-68
2021/09/03 03:31:57;;;;;;;4.82;3.35;;;;;;;;;;6175996;28;20523;-67
2021/09/03 03:34:59;;;;;;;7.65;3.67;;;;;;;;;;6181658;28;20100;-74
2021/09/03 03:38:00;;;;;;;5.38;3.58;;;;;;;;;;6178118;28;20476;-68
2021/09/03 03:41:03;;;;;;;4.97;3.40;;;;;;;;;;6179454;28;20129;-69
2021/09/03 03:44:05;;;;;;;7.68;3.55;;;;;;;;;;6180910;28;20074;-69
2021/09/03 03:47:07;;;;;;;6.07;3.60;;;;;;;;;;6174397;28;20133;-69
2021/09/03 03:50:10;;;;;;;5.47;3.30;;;;;;;;;;6179026;28;20112;-74
2021/09/03 03:53:11;;;;;;;5.18;3.15;;;;;;;;;;6172613;28;20836;-69
2021/09/03 03:56:14;;;;;;;5.53;3.38;;;;;;;;;;6172687;28;20506;-68
2021/09/03 03:59:16;;;;;;;4.82;3.00;;;;;;;;;;6185117;28;20494;-68
2021/09/03 04:02:18;;;;;;;6.20;3.25;;;;;;;;;;6171077;28;20648;-75
2021/09/03 04:05:19;;;;;;;7.78;3.10;;;;;;;;;;6177347;28;20731;-75
2021/09/03 04:08:21;;;;;;;6.40;2.97;;;;;;;;;;6178372;28;20042;-69
2021/09/03 04:11:24;;;;;;;5.05;2.72;;;;;;;;;;6174469;28;20482;-69
2021/09/03 04:14:26;;;;;;;5.50;3.15;;;;;;;;;;6182092;28;20563;-69
2021/09/03 04:17:27;;;;;;;3.72;2.70;;;;;;;;;;6172332;28;20726;-69
2021/09/03 04:20:29;;;;;;;6.07;3.15;;;;;;;;;;6173303;28;20039;-68
2021/09/03 04:23:31;;;;;;;8.40;3.15;;;;;;;;;;6181188;28;20421;-68
2021/09/03 04:26:34;;;;;;;5.07;3.30;;;;;;;;;;6178938;28;20047;-68
2021/09/03 04:29:36;;;;;;;7.97;3.20;;;;;;;;;;6184857;28;20084;-72
2021/09/03 04:32:37;;;;;;;7.00;3.03;;;;;;;;;;6172660;28;20066;-71
2021/09/03 04:35:39;;;;;;;4.97;3.22;;;;;;;;;;6175659;28;20112;-68
2021/09/03 04:38:40;;;;;;;5.80;2.95;;;;;;;;;;6177245;28;20053;-68
2021/09/03 04:41:43;;;;;;;6.32;2.90;;;;;;;;;;6178297;28;20137;-71
2021/09/03 04:44:45;;;;;;;6.03;3.10;;;;;;;;;;6180921;28;20078;-68
2021/09/03 04:47:46;;;;;;;6.22;3.17;;;;;;;;;;6170435;28;20173;-68
2021/09/03 04:50:48;;;;;;;5.25;2.83;;;;;;;;;;6172700;28;20047;-68
2021/09/03 04:53:50;;;;;;;6.90;3.20;;;;;;;;;;6179498;28;20193;-68
2021/09/03 04:56:52;;;;;;;8.32;3.30;;;;;;;;;;6173484;28;20042;-68
2021/09/03 04:59:54;;;;;;;5.03;2.85;;;;;;;;;;6185489;28;20125;-69
2021/09/03 05:02:56;;;;;;;7.72;2.92;;;;;;;;;;6168393;28;20054;-68
2021/09/03 05:05:57;;;;;;;7.20;3.08;;;;;;;;;;6173375;28;20129;-70
2021/09/03 05:08:59;;;;;;;6.47;3.35;;;;;;;;;;6184487;28;20046;-69
2021/09/03 05:12:02;;;;;;;5.57;2.70;;;;;;;;;;6174804;28;20043;-68
2021/09/03 05:15:07;;;;;;;8.68;3.80;;;;;;;;;;6181804;28;20142;-69
2021/09/03 05:18:09;;;;;;;4.90;2.80;;;;;;;;;;6176363;28;20051;-70
2021/09/03 05:21:10;;;;;;;4.47;2.80;;;;;;;;;;6175934;28;20450;-68
2021/09/03 05:24:12;;;;;;;10.90;2.80;;;;;;;;;;6188949;28;20568;-68
2021/09/03 05:27:15;;;;;;;6.10;2.90;;;;;;;;;;6179464;28;20721;-78
2021/09/03 05:30:16;;;;;;;6.00;2.95;;;;;;;;;;6190504;28;20145;-79
2021/09/03 05:33:18;;;;;;;4.07;3.00;;;;;;;;;;6188208;28;20181;-77
2021/09/03 05:36:22;;;;;;;8.57;3.10;;;;;;;;;;6185944;28;20096;-68
2021/09/03 05:39:23;;;;;;;5.43;2.88;;;;;;;;;;6193058;28;20051;-67
2021/09/03 05:42:26;;;;;;;7.47;2.58;;;;;;;;;;6183142;28;20081;-69
2021/09/03 05:45:28;;;;;;;5.40;2.80;;;;;;;;;;6185259;28;20138;-68
2021/09/03 05:48:30;;;;;;;4.45;2.58;;;;;;;;;;6184797;28;20046;-68
2021/09/03 05:51:31;;;;;;;7.15;2.38;;;;;;;;;;6192807;28;20109;-69
2021/09/03 05:54:33;;;;;;;4.43;2.67;;;;;;;;;;6195111;28;20121;-70
2021/09/03 05:57:36;;;;;;;5.18;2.90;;;;;;;;;;6189732;28;20192;-71
2021/09/03 06:00:37;;;;;;;4.03;2.65;;;;;;;;;;6186998;28;20475;-68
2021/09/03 06:03:39;;;;;;;4.90;2.63;;;;;;;;;;6183529;28;20042;-69
2021/09/03 06:06:41;;;;;;;5.85;3.20;;;;;;;;;;6183690;28;20517;-70
2021/09/03 06:09:42;;;;;;;6.25;3.08;;;;;;;;;;6188730;28;20196;-71
2021/09/03 06:12:45;;;;;;;6.60;2.50;;;;;;;;;;6185527;28;20050;-82
2021/09/03 06:15:47;;;;;;;5.30;2.78;;;;;;;;;;6184156;28;20068;-87
2021/09/03 06:18:49;;;;;;;3.90;2.50;;;;;;;;;;6182815;28;20418;-82
2021/09/03 06:21:50;;;;;;;7.20;2.63;;;;;;;;;;6182074;28;20051;-69
2021/09/03 06:24:52;;;;;;;6.43;2.40;;;;;;;;;;6192144;28;20050;-70
2021/09/03 06:27:55;;;;;;;5.80;2.70;;;;;;;;;;6182708;28;20153;-70
2021/09/03 06:30:56;;;;;;;5.18;2.50;;;;;;;;;;6181298;28;20417;-72
2021/09/03 06:33:58;;;;;;;6.00;2.85;;;;;;;;;;6179703;28;20043;-81
2021/09/03 06:36:59;;;;;;;4.25;2.72;;;;;;;;;;6180480;28;20058;-69
2021/09/03 06:40:01;;;;;;;5.68;2.78;;;;;;;;;;6183499;28;20038;-69
2021/09/03 06:43:04;;;;;;;3.63;2.40;;;;;;;;;;6176061;28;20494;-70
2021/09/03 06:46:06;;;;;;;6.50;2.80;;;;;;;;;;6178403;28;21534;-71
2021/09/03 06:49:07;;;;;;;4.60;2.50;;;;;;;;;;6182031;28;20134;-68
2021/09/03 06:52:11;;;;;;;6.53;2.65;;;;;;;;;;6178622;28;20087;-71
2021/09/03 06:55:12;;;;;;;;;;;;;;;;;;6182414;28;20128;-83
2021/09/03 06:58:15;;;;;;;9.95;3.33;;;;;;;;;;6183532;28;19928;-79
2021/09/03 07:01:17;;;;;;;4.28;2.78;;;;;;;;;;6174041;28;20147;-71
2021/09/03 07:04:18;;;;;;;6.32;2.70;;;;;;;;;;6176825;28;20422;-71
2021/09/03 07:07:20;;;;;;;4.95;2.75;;;;;;;;;;6175163;28;20054;-73
2021/09/03 07:10:21;;;;;;;4.53;2.88;;;;;;;;;;6177386;28;20207;-72
2021/09/03 07:13:24;;;;;;;4.93;2.63;;;;;;;;;;6179119;28;20046;-72
2021/09/03 07:16:26;;;;;;;3.20;2.42;;;;;;;;;;6171039;28;20157;-72
2021/09/03 07:19:28;;;;;;;5.72;2.72;;;;;;;;;;6177346;28;20046;-72
2021/09/03 07:22:29;;;;;;;6.05;2.88;;;;;;;;;;6172402;28;20085;-72
2021/09/03 07:25:31;;;;;;;4.97;2.85;;;;;;;;;;6177999;28;20096;-72
2021/09/03 07:28:34;;;;;;;3.88;2.60;;;;;;;;;;6180949;28;20108;-71
2021/09/03 07:31:36;;;;;;;4.47;2.88;;;;;;;;;;6173748;28;20038;-71
2021/09/03 07:34:37;;;;;;;4.93;3.03;;;;;;;;;;6173891;28;20133;-70
2021/09/03 07:37:40;;;;;;;5.78;2.60;;;;;;;;;;6174935;28;20185;-71
2021/09/03 07:40:41;;;;;;;4.05;2.60;;;;;;;;;;6172809;28;20099;-70
2021/09/03 07:43:44;;;;;;;4.13;2.60;;;;;;;;;;6182212;28;20204;-70
2021/09/03 07:46:45;;;;;;;5.43;2.60;;;;;;;;;;6169977;28;20189;-70
2021/09/03 07:49:47;;;;;;;5.00;2.95;;;;;;;;;;6178327;28;20121;-70
2021/09/03 07:52:49;;;;;;;4.53;2.70;;;;;;;;;;6169424;28;20057;-71
2021/09/03 07:55:51;;;;;;;5.10;2.80;;;;;;;;;;6173473;28;20126;-70
2021/09/03 07:58:54;;;;;;;5.20;2.80;;;;;;;;;;6179252;28;20054;-70
2021/09/03 08:01:55;;;;;;;5.10;2.67;;;;;;;;;;6174796;28;21905;-69
2021/09/03 08:04:57;;;;;;;4.72;2.80;;;;;;;;;;6175603;28;20062;-73
2021/09/03 08:07:59;;;;;;;5.10;3.20;;;;;;;;;;6171346;28;20042;-68
2021/09/03 08:11:00;;;;;;;9.00;3.70;;;;;;;;;;6176663;28;20046;-70
2021/09/03 08:14:03;;;;;;;5.18;3.47;;;;;;;;;;6183910;28;20112;-69
2021/09/03 08:17:05;;;;;;;4.57;3.50;;;;;;;;;;6170939;28;20047;-69
2021/09/03 08:20:08;;;;;;;6.10;3.60;;;;;;;;;;6175213;28;20050;-71
2021/09/03 08:23:10;;;;;;;6.03;4.05;;;;;;;;;;6173303;28;20046;-69
2021/09/03 08:26:12;;;;;;;7.82;3.75;;;;;;;;;;6176638;28;20053;-70
2021/09/03 08:29:14;;;;;;;4.55;3.00;;;;;;;;;;6178879;28;20046;-69
2021/09/03 08:32:16;;;;;;;5.90;3.38;;;;;;;;;;6168854;28;21237;-74
2021/09/03 08:35:18;;;;;;;4.32;2.83;;;;;;;;;;6175389;28;20467;-73
2021/09/03 08:38:19;;;;;;;5.65;2.75;;;;;;;;;;6177646;28;20079;-70
2021/09/03 08:41:21;;;;;;;6.55;3.00;;;;;;;;;;6174196;28;20128;-70
2021/09/03 08:44:24;;;;;;;6.20;3.22;;;;;;;;;;6180832;28;20108;-69
2021/09/03 08:47:26;;;;;;;;;;;;;;;;;;6169159;28;20173;-70
2021/09/03 08:50:27;;;;;;;5.65;3.10;;;;;;;;;;6175651;28;19926;-69
2021/09/03 08:53:29;;;;;;;6.82;2.85;;;;;;;;;;6177652;28;20088;-69
2021/09/03 08:56:31;;;;;;;5.28;2.60;;;;;;;;;;6173077;28;20621;-69
2021/09/03 08:59:34;;;;;;;3.83;3.05;;;;;;;;;;6182281;28;20057;-72
2021/09/03 09:02:36;;;;;;;3.22;2.72;;;;;;;;;;6169726;28;20090;-70
2021/09/03 09:05:54;;;;;;;3.90;2.38;;;;;;;;;;6175004;28;20097;-68
2021/09/03 09:09:02;;;;;;;7.20;2.72;;;;;;;;;;6183355;28;20050;-70
2021/09/03 09:12:06;;;;;;;4.25;2.70;;;;;;;;;;6181743;28;20141;-69
2021/09/03 09:15:10;;;;;;;4.25;2.20;;;;;;;;;;6178237;28;20065;-75
2021/09/03 09:18:12;;;;;;;11.88;2.53;;;;;;;;;;6176578;28;20082;-69
2021/09/03 09:21:22;;;;;;;4.23;2.60;;;;;;;;;;6178809;28;20080;-69
2021/09/03 09:24:23;;;;;;;3.65;2.55;;;;;;;;;;6182805;28;20054;-70
2021/09/03 09:27:26;;;;;;;4.63;2.20;;;;;;;;;;6176608;28;20047;-71
2021/09/03 09:30:29;;;;;;;2.35;2.10;;;;;;;;;;6181203;28;20461;-69
2021/09/03 09:33:31;;;;;;;6.55;2.85;;;;;;;;;;6178712;28;20050;-69
2021/09/03 09:36:35;;;;;;;6.60;2.90;;;;;;;;;;6175674;28;20054;-72
2021/09/03 09:39:42;;;;;;;4.40;2.85;;;;;;;;;;6183820;28;20491;-72
2021/09/03 09:42:44;;;;;;;3.17;1.92;;;;;;;;;;6176414;28;20054;-70
2021/09/03 09:45:47;;;;;;;2.50;2.30;;;;;;;;;;6175515;28;20104;-75
2021/09/03 09:49:13;;;;;;;2.78;2.20;;;;;;;;;;6182022;28;20085;-68
2021/09/03 09:52:14;;;;;;;3.60;2.42;;;;;;;;;;6183958;28;20533;-71
2021/09/03 09:55:16;;;;;;;2.88;2.25;;;;;;;;;;6187041;28;20050;-73
2021/09/03 09:58:19;;;;;;;4.37;3.00;;;;;;;;;;6184086;28;20046;-71
2021/09/03 10:01:23;;;;;;;5.40;2.80;;;;;;;;;;6174591;28;20473;-68
2021/09/03 10:04:26;;;;;;;3.60;2.40;;;;;;;;;;6180220;28;20096;-69
2021/09/03 10:07:28;;;;;;;7.18;2.53;;;;;;;;;;6171242;28;20050;-70
2021/09/03 10:10:30;;;;;;;3.15;2.53;;;;;;;;;;6180093;28;20605;-74
2021/09/03 10:13:31;;;;;;;4.05;2.70;;;;;;;;;;6178145;28;20134;-70
2021/09/03 10:16:34;;;;;;;5.90;2.40;;;;;;;;;;6174107;28;20047;-73
2021/09/03 10:19:36;;;;;;;2.63;2.30;;;;;;;;;;6179442;28;20429;-70
2021/09/03 10:22:42;;;;;;;3.53;2.50;;;;;;;;;;6175614;28;20046;-69
2021/09/03 10:25:52;;;;;;;3.60;2.85;;;;;;;;;;6176438;28;20475;-71
2021/09/03 10:29:20;;;;;;;3.00;2.67;;;;;;;;;;6180825;28;20055;-70
2021/09/03 10:32:25;;;;;;;3.78;2.85;;;;;;;;;;6176142;28;20141;-69
2021/09/03 10:35:35;;;;;;;3.60;2.85;;;;;;;;;;6179677;28;20185;-74
2021/09/03 10:38:42;;;;;;;4.97;2.67;;;;;;;;;;6181717;28;20050;-75
2021/09/03 10:41:48;;;;;;;4.45;2.58;;;;;;;;;;6178204;28;20095;-74
2021/09/03 10:45:05;;;;;;;4.03;2.40;;;;;;;;;;6182496;28;20058;-70
2021/09/03 10:48:11;;;;;;;3.17;2.85;;;;;;;;;;6173038;28;20043;-71
2021/09/03 10:51:13;;;;;;;3.38;2.97;;;;;;;;;;6185963;28;20046;-71
2021/09/03 10:54:15;;;;;;;;;;;;;;;;;;6187526;28;20498;-73
2021/09/03 10:57:17;;;;;;;4.38;2.90;;;;;;;;;;6185912;28;20501;-71
2021/09/03 11:00:19;;;;;;;3.95;2.80;;;;;;;;;;6183996;28;20513;-80
2021/09/03 11:03:37;;;;;;;5.30;2.92;;;;;;;;;;6183181;28;20050;-77
2021/09/03 11:06:40;;;;;;;4.15;2.80;;;;;;;;;;6181772;28;20049;-70
2021/09/03 11:09:46;;;;;;;3.47;3.03;;;;;;;;;;6184417;28;20398;-70
2021/09/03 11:12:49;;;;;;;5.28;2.90;;;;;;;;;;6179779;28;20053;-73
2021/09/03 11:15:51;;;;;;;5.25;3.00;;;;;;;;;;6174598;28;20042;-71
2021/09/03 11:19:06;;;;;;;5.35;3.00;;;;;;;;;;6183990;28;20133;-70
2021/09/03 11:22:09;;;;;;;4.80;3.28;;;;;;;;;;6178002;28;20134;-69
2021/09/03 11:25:11;;;;;;;4.20;3.28;;;;;;;;;;6183379;28;20055;-80
2021/09/03 11:28:13;;;;;;;;;;;;;;;;;;6183689;28;20549;-70
2021/09/03 11:31:15;;;;;;;5.63;2.90;;;;;;;;;;6181390;28;19921;-70
2021/09/03 11:34:18;;;;;;;;;;;;;;;;;;6186185;28;20181;-70
2021/09/03 11:37:25;;;;;;;5.03;3.10;;;;;;;;;;6183373;28;19922;-73
2021/09/03 11:40:28;;;;;;;4.97;2.65;;;;;;;;;;6185143;28;20124;-71
2021/09/03 11:43:30;;;;;;;7.88;3.42;;;;;;;;;;6194275;28;20067;-70
2021/09/03 11:46:36;;;;;;;6.45;3.22;;;;;;;;;;6177855;28;20245;-77
2021/09/03 11:49:39;;;;;;;4.18;3.20;;;;;;;;;;6187834;28;20046;-70
2021/09/03 11:52:42;;;;;;;3.65;3.00;;;;;;;;;;6174260;28;20050;-78
2021/09/03 11:55:47;;;;;;;5.75;2.78;;;;;;;;;;6183639;28;20113;-73
2021/09/03 11:58:50;;;;;;;4.90;2.83;;;;;;;;;;6192278;28;20042;-73
2021/09/03 12:02:02;;;;;;;5.15;3.03;;;;;;;;;;6175806;28;20050;-70
2021/09/03 12:05:09;;;;;;;5.30;2.95;;;;;;;;;;6180006;28;20980;-70
2021/09/03 12:08:13;;;;;;;6.95;3.15;;;;;;;;;;6176434;28;20124;-70
2021/09/03 12:11:19;;;;;;;6.13;3.40;;;;;;;;;;6179867;28;20169;-70
2021/09/03 12:14:20;;;;;;;4.47;3.17;;;;;;;;;;6173384;28;20434;-73
2021/09/03 12:17:22;;;;;;;4.88;2.90;;;;;;;;;;6175397;28;20139;-75
2021/09/03 12:20:25;;;;;;;3.85;3.15;;;;;;;;;;6172125;28;20169;-82
2021/09/03 12:23:33;;;;;;;6.70;3.08;;;;;;;;;;6184735;28;20069;-69
2021/09/03 12:26:37;;;;;;;7.97;3.85;;;;;;;;;;6182005;28;20613;-69
2021/09/03 12:29:39;;;;;;;3.83;2.83;;;;;;;;;;6183883;28;20038;-69
2021/09/03 12:32:40;;;;;;;4.03;2.90;;;;;;;;;;6175808;28;20514;-70
2021/09/03 12:35:45;;;;;;;5.07;3.30;;;;;;;;;;6178740;28;20125;-76
2021/09/03 12:38:51;;;;;;;3.80;3.03;;;;;;;;;;6186163;28;20100;-78
2021/09/03 12:41:53;;;;;;;3.83;3.50;;;;;;;;;;6182727;28;20454;-70
2021/09/03 12:45:00;;;;;;;9.60;2.90;;;;;;;;;;6194680;28;20447;-71
2021/09/03 12:48:05;;;;;;;4.00;3.50;;;;;;;;;;6175704;28;20051;-70
2021/09/03 12:51:08;;;;;;;8.27;3.33;;;;;;;;;;6184463;28;20129;-69
2021/09/03 12:54:11;;;;;;;3.85;2.70;;;;;;;;;;6193931;28;20073;-72
2021/09/03 12:57:12;;;;;;;4.55;3.08;;;;;;;;;;6188046;28;20043;-70
2021/09/03 13:00:15;;;;;;;6.15;3.15;;;;;;;;;;6190092;28;20046;-76
2021/09/03 13:03:17;;;;;;;5.18;3.33;;;;;;;;;;6181262;28;20050;-69
2021/09/03 13:06:20;;;;;;;4.38;3.35;;;;;;;;;;6183282;28;20125;-68
2021/09/03 13:09:23;;;;;;;3.88;3.58;;;;;;;;;;6191150;28;20389;-71
2021/09/03 13:12:24;;;;;;;4.20;3.67;;;;;;;;;;6185192;28;20082;-70
2021/09/03 13:15:26;;;;;;;5.15;3.15;;;;;;;;;;6189496;28;20042;-76
2021/09/03 13:18:27;;;;;;;8.82;2.97;;;;;;;;;;6183069;28;20098;-74
2021/09/03 13:21:30;;;;;;;4.07;3.63;;;;;;;;;;6180718;28;20050;-70
2021/09/03 13:24:32;;;;;;;6.40;3.15;;;;;;;;;;6186424;28;20116;-70
2021/09/03 13:27:34;;;;;;;5.95;3.00;;;;;;;;;;6186683;28;20610;-69
2021/09/03 13:30:35;;;;;;;4.60;3.08;;;;;;;;;;6180870;28;20125;-79
2021/09/03 13:33:37;;;;;;;5.75;4.03;;;;;;;;;;6183827;28;20133;-69
2021/09/03 13:36:40;;;;;;;4.85;3.85;;;;;;;;;;6187669;28;20101;-72
2021/09/03 13:39:42;;;;;;;6.93;4.25;;;;;;;;;;6188491;28;20038;-69
2021/09/03 13:42:43;;;;;;;7.30;3.80;;;;;;;;;;6180118;28;20088;-68
2021/09/03 13:45:45;;;;;;;;;;;;;;;;;;6184207;28;20138;-75
2021/09/03 13:48:47;;;;;;;7.13;4.05;;;;;;;;;;6187351;28;19944;-71
2021/09/03 13:51:50;;;;;;;5.95;3.38;;;;;;;;;;6180549;28;20064;-71
2021/09/03 13:54:52;;;;;;;4.32;3.88;;;;;;;;;;6188367;28;20124;-71
2021/09/03 13:57:53;;;;;;;5.53;3.90;;;;;;;;;;6184998;28;20065;-72
2021/09/03 14:00:55;;;;;;;4.93;3.58;;;;;;;;;;6184737;28;20487;-72
2021/09/03 14:03:56;;;;;;;5.85;4.28;;;;;;;;;;6183586;28;20039;-71
2021/09/03 14:06:59;;;;;;;4.82;4.40;;;;;;;;;;6175643;28;20347;-71
2021/09/03 14:10:01;;;;;;;5.38;3.72;;;;;;;;;;6182664;28;20042;-69
2021/09/03 14:13:03;;;;;;;4.50;3.78;;;;;;;;;;6176886;28;20054;-70
2021/09/03 14:16:05;;;;;;;4.88;3.47;;;;;;;;;;6172895;28;20030;-73
2021/09/03 14:19:07;;;;;;;3.90;3.40;;;;;;;;;;6178916;28;20047;-69
2021/09/03 14:22:10;;;;;;;5.82;3.72;;;;;;;;;;6180566;28;20145;-70
2021/09/03 14:25:12;;;;;;;5.32;3.63;;;;;;;;;;6176967;28;20271;-73
2021/09/03 14:28:14;;;;;;;5.00;3.47;;;;;;;;;;6177133;28;20194;-71
2021/09/03 14:31:15;;;;;;;4.53;3.67;;;;;;;;;;6175752;28;20134;-71
2021/09/03 14:34:17;;;;;;;5.95;4.50;;;;;;;;;;6184125;28;20042;-72
2021/09/03 14:37:20;;;;;;;4.68;4.15;;;;;;;;;;6157627;28;20068;-69
2021/09/03 14:40:21;;;;;;;6.43;3.33;;;;;;;;;;6186012;28;20070;-75
2021/09/03 14:43:24;;;;;;;6.15;3.70;;;;;;;;;;6190036;28;20090;-75
2021/09/03 14:46:25;;;;;;;7.47;4.10;;;;;;;;;;6172688;28;20098;-77
2021/09/03 14:49:27;;;;;;;6.80;3.75;;;;;;;;;;6178960;28;20038;-69
2021/09/03 14:52:30;;;;;;;5.75;4.10;;;;;;;;;;6174435;28;20073;-69
2021/09/03 14:55:31;;;;;;;5.60;3.80;;;;;;;;;;6180935;28;20034;-79
2021/09/03 14:58:33;;;;;;;5.50;3.65;;;;;;;;;;6184409;28;20042;-69
2021/09/03 15:01:35;;;;;;;9.98;3.88;;;;;;;;;;6179165;28;20522;-70
2021/09/03 15:04:36;;;;;;;9.18;4.40;;;;;;;;;;6185941;28;20347;-71
2021/09/03 15:07:39;;;;;;;14.75;3.95;;;;;;;;;;6179863;28;20579;-71
2021/09/03 15:10:41;;;;;;;6.43;4.25;;;;;;;;;;6182805;28;20042;-71
2021/09/03 15:13:43;;;;;;;7.82;4.10;;;;;;;;;;6188847;28;20435;-71
2021/09/03 15:16:45;;;;;;;7.15;4.70;;;;;;;;;;6174985;28;20102;-70
2021/09/03 15:19:46;;;;;;;5.53;3.63;;;;;;;;;;6180634;28;20092;-70
2021/09/03 15:22:49;;;;;;;4.68;3.78;;;;;;;;;;6183158;28;20124;-75
2021/09/03 15:25:51;;;;;;;5.57;3.70;;;;;;;;;;6183326;28;20096;-69
2021/09/03 15:28:53;;;;;;;4.28;3.88;;;;;;;;;;6184770;28;20084;-70
2021/09/03 15:31:55;;;;;;;11.10;3.65;;;;;;;;;;6177717;28;20092;-69
2021/09/03 15:34:57;;;;;;;6.97;3.90;;;;;;;;;;6184855;28;20070;-76
2021/09/03 15:38:12;;;;;;;9.48;3.58;;;;;;;;;;6186729;28;20414;-70
2021/09/03 15:41:14;;;;;;;5.00;3.40;;;;;;;;;;6183179;28;20051;-69
2021/09/03 15:44:15;;;;;;;5.78;4.07;;;;;;;;;;6190379;28;20056;-77
2021/09/03 15:47:17;;;;;;;4.85;3.53;;;;;;;;;;6177822;28;20046;-77
2021/09/03 15:50:20;;;;;;;8.20;3.17;;;;;;;;;;6177153;28;20889;-78
2021/09/03 15:53:23;;;;;;;6.75;3.85;;;;;;;;;;6176174;28;20783;-69
2021/09/03 15:56:24;;;;;;;6.03;3.08;;;;;;;;;;6177404;28;20082;-70
2021/09/03 15:59:26;;;;;;;6.40;4.28;;;;;;;;;;6181654;28;20486;-76
2021/09/03 16:02:27;;;;;;;5.20;3.53;;;;;;;;;;6170984;28;20228;-75
2021/09/03 16:05:29;;;;;;;4.28;3.00;;;;;;;;;;6175499;28;20204;-75
2021/09/03 16:08:32;;;;;;;10.13;3.65;;;;;;;;;;6174935;28;20073;-74
2021/09/03 16:11:34;;;;;;;8.65;3.80;;;;;;;;;;6170197;28;20137;-69
2021/09/03 16:14:36;;;;;;;;;;;;;;;;;;6181855;28;20107;-70
2021/09/03 16:17:38;;;;;;;6.18;3.28;;;;;;;;;;6165298;28;20385;-70
2021/09/03 16:20:40;;;;;;;;;;;;;;;;;;6173199;28;20519;-72
2021/09/03 16:23:43;;;;;;;;;;;;;;;;;;6183674;28;19932;-70
2021/09/03 16:26:44;;;;;;;9.32;4.05;;;;;;;;;;6175109;28;19922;-73
2021/09/03 16:29:47;;;;;;;14.55;3.50;;;;;;;;;;6185539;28;20414;-73
2021/09/03 16:32:48;;;;;;;5.53;3.38;;;;;;;;;;6179922;28;20043;-75
2021/09/03 16:35:50;;;;;;;;;;;;;;;;;;6173918;28;20050;-74
2021/09/03 16:38:53;;;;;;;6.20;3.70;;;;;;;;;;6190634;28;20000;-70
2021/09/03 16:41:54;;;;;;;9.30;3.63;;;;;;;;;;6177412;28;20469;-72
2021/09/03 16:44:56;;;;;;;9.07;3.65;;;;;;;;;;6184066;28;20043;-70
2021/09/03 16:47:58;;;;;;;7.72;3.60;;;;;;;;;;6174321;28;20818;-70
2021/09/03 16:51:00;;;;;;;6.45;3.30;;;;;;;;;;6182786;28;20140;-70
2021/09/03 16:54:03;;;;;;;5.18;3.38;;;;;;;;;;6188065;28;20527;-71
2021/09/03 16:57:06;;;;;;;6.22;3.22;;;;;;;;;;6177610;28;20190;-70
2021/09/03 17:00:09;;;;;;;9.23;4.28;;;;;;;;;;6188712;28;20110;-79
2021/09/03 17:03:11;;;;;;;5.43;3.45;;;;;;;;;;6176450;28;20133;-69
2021/09/03 17:06:13;;;;;;;5.07;3.60;;;;;;;;;;6178978;28;20627;-70
2021/09/03 17:09:16;;;;;;;9.88;3.80;;;;;;;;;;6184586;28;20092;-71
2021/09/03 17:12:17;;;;;;;5.97;3.58;;;;;;;;;;6177978;28;20221;-71
2021/09/03 17:15:19;;;;;;;9.70;3.30;;;;;;;;;;6183965;28;20074;-80
2021/09/03 17:18:21;;;;;;;7.32;3.90;;;;;;;;;;6181179;28;20454;-80
2021/09/03 17:21:22;;;;;;;4.55;3.05;;;;;;;;;;6176146;28;20186;-71
2021/09/03 17:24:25;;;;;;;4.80;3.30;;;;;;;;;;6188725;28;20181;-70
2021/09/03 17:27:27;;;;;;;5.50;3.55;;;;;;;;;;6187359;28;20038;-70
2021/09/03 17:30:29;;;;;;;7.28;3.80;;;;;;;;;;6185048;28;20046;-69
2021/09/03 17:33:31;;;;;;;10.20;3.15;;;;;;;;;;6186858;28;20058;-71
2021/09/03 17:36:32;;;;;;;6.25;3.58;;;;;;;;;;6186869;28;20134;-77
2021/09/03 17:39:35;;;;;;;8.65;3.25;;;;;;;;;;6184018;28;20054;-64
2021/09/03 17:42:37;;;;;;;;;;;;;;;;;;6182083;28;20073;-70
2021/09/03 17:45:39;;;;;;;8.85;7.10;;;;;;;;;;6176689;28;19922;-73
2021/09/03 17:48:41;;;;;;;8.15;5.63;;;;;;;;;;6186783;28;20513;-72
2021/09/03 17:51:43;;;;;;;7.47;6.32;;;;;;;;;;6181277;28;20085;-72
2021/09/03 17:54:46;;;;;;;7.15;4.32;;;;;;;;;;6191308;28;20430;-69
2021/09/03 17:57:47;;;;;;;;;;;;;;;;;;6185645;28;20046;-70
2021/09/03 18:00:49;;;;;;;10.63;3.80;;;;;;;;;;6178814;28;20046;-70
2021/09/03 18:03:50;;;;;;;3.58;3.13;;;;;;;;;;6182257;28;20054;-69
2021/09/03 18:06:52;;;;;;;5.70;3.53;;;;;;;;;;6184056;28;20092;-70
2021/09/03 18:09:55;;;;;;;4.45;3.63;;;;;;;;;;6184710;28;20089;-71
2021/09/03 18:12:57;;;;;;;;;;;;;;;;;;6183324;28;20049;-69
2021/09/03 18:15:58;;;;;;;7.53;3.38;;;;;;;;;;6179146;28;19922;-68
2021/09/03 18:19:00;;;;;;;5.60;3.20;;;;;;;;;;6179889;28;20213;-70